sensor_id;sensor_type;location;lat;lon;timestamp;P1;durP1;ratioP1;P2;durP2;ratioP2
14847;SDS011;7516;43.570;1.448;2022-09-17T00:01:15;3.15;;;1.50;;
14847;SDS011;7516;43.570;1.448;2022-09-17T00:03:48;2.47;;;1.50;;
14847;SDS011;7516;43.570;1.448;2022-09-17T00:06:17;3.08;;;1.50;;
14847;SDS011;7516;43.570;1.448;2022-09-17T00:08:46;4.70;;;1.50;;
14847;SDS011;7516;43.570;1.448;2022-09-17T00:11:14;2.35;;;1.42;;
14847;SDS011;7516;43.570;1.448;2022-09-17T00:13:45;3.85;;;1.20;;
14847;SDS011;7516;43.570;1.448;2022-09-17T00:16:21;2.25;;;1.25;;
14847;SDS011;7516;43.570;1.448;2022-09-17T00:18:52;3.92;;;1.33;;
14847;SDS011;7516;43.570;1.448;2022-09-17T00:21:20;1.92;;;1.25;;
14847;SDS011;7516;43.570;1.448;2022-09-17T00:23:52;2.53;;;1.40;;
14847;SDS011;7516;43.570;1.448;2022-09-17T00:26:20;2.35;;;1.30;;
14847;SDS011;7516;43.570;1.448;2022-09-17T00:28:48;5.05;;;1.45;;
14847;SDS011;7516;43.570;1.448;2022-09-17T00:31:16;3.20;;;1.48;;
14847;SDS011;7516;43.570;1.448;2022-09-17T00:33:44;2.47;;;1.48;;
14847;SDS011;7516;43.570;1.448;2022-09-17T00:36:12;3.60;;;1.60;;
14847;SDS011;7516;43.570;1.448;2022-09-17T00:38:40;4.00;;;1.50;;
14847;SDS011;7516;43.570;1.448;2022-09-17T00:41:08;3.58;;;1.40;;
14847;SDS011;7516;43.570;1.448;2022-09-17T00:43:37;2.15;;;1.40;;
14847;SDS011;7516;43.570;1.448;2022-09-17T00:46:10;3.00;;;1.48;;
14847;SDS011;7516;43.570;1.448;2022-09-17T00:48:47;3.05;;;1.52;;
14847;SDS011;7516;43.570;1.448;2022-09-17T00:51:16;5.47;;;1.50;;
14847;SDS011;7516;43.570;1.448;2022-09-17T00:53:48;3.45;;;1.27;;
14847;SDS011;7516;43.570;1.448;2022-09-17T00:56:17;3.75;;;1.50;;
14847;SDS011;7516;43.570;1.448;2022-09-17T00:58:49;3.85;;;1.30;;
14847;SDS011;7516;43.570;1.448;2022-09-17T01:01:17;2.38;;;1.50;;
14847;SDS011;7516;43.570;1.448;2022-09-17T01:03:44;2.10;;;1.40;;
14847;SDS011;7516;43.570;1.448;2022-09-17T01:06:14;3.72;;;1.50;;
14847;SDS011;7516;43.570;1.448;2022-09-17T01:08:53;2.28;;;1.17;;
14847;SDS011;7516;43.570;1.448;2022-09-17T01:14:46;2.25;;;1.30;;
14847;SDS011;7516;43.570;1.448;2022-09-17T01:17:27;3.78;;;1.20;;
14847;SDS011;7516;43.570;1.448;2022-09-17T01:20:21;2.80;;;1.40;;
14847;SDS011;7516;43.570;1.448;2022-09-17T01:23:14;3.60;;;1.23;;
14847;SDS011;7516;43.570;1.448;2022-09-17T01:26:05;2.80;;;1.40;;
14847;SDS011;7516;43.570;1.448;2022-09-17T01:28:46;4.10;;;1.42;;
14847;SDS011;7516;43.570;1.448;2022-09-17T01:31:27;2.92;;;1.60;;
14847;SDS011;7516;43.570;1.448;2022-09-17T01:34:01;3.72;;;1.33;;
14847;SDS011;7516;43.570;1.448;2022-09-17T01:36:43;2.03;;;1.13;;
14847;SDS011;7516;43.570;1.448;2022-09-17T01:39:27;3.25;;;1.20;;
14847;SDS011;7516;43.570;1.448;2022-09-17T01:42:08;1.65;;;1.17;;
14847;SDS011;7516;43.570;1.448;2022-09-17T01:44:44;3.45;;;1.30;;
14847;SDS011;7516;43.570;1.448;2022-09-17T01:47:21;2.75;;;1.27;;
14847;SDS011;7516;43.570;1.448;2022-09-17T01:49:53;4.22;;;1.45;;
14847;SDS011;7516;43.570;1.448;2022-09-17T01:52:26;4.07;;;1.42;;
14847;SDS011;7516;43.570;1.448;2022-09-17T01:54:57;2.17;;;1.40;;
14847;SDS011;7516;43.570;1.448;2022-09-17T01:57:30;2.55;;;1.38;;
14847;SDS011;7516;43.570;1.448;2022-09-17T02:00:04;3.13;;;1.30;;
14847;SDS011;7516;43.570;1.448;2022-09-17T02:02:37;3.03;;;1.20;;
14847;SDS011;7516;43.570;1.448;2022-09-17T02:05:11;2.10;;;1.40;;
14847;SDS011;7516;43.570;1.448;2022-09-17T02:07:43;3.92;;;1.40;;
14847;SDS011;7516;43.570;1.448;2022-09-17T02:10:16;5.72;;;1.55;;
14847;SDS011;7516;43.570;1.448;2022-09-17T02:12:48;1.52;;;1.13;;
14847;SDS011;7516;43.570;1.448;2022-09-17T02:15:22;4.18;;;1.30;;
14847;SDS011;7516;43.570;1.448;2022-09-17T02:17:56;2.25;;;1.40;;
14847;SDS011;7516;43.570;1.448;2022-09-17T02:20:31;2.72;;;1.48;;
14847;SDS011;7516;43.570;1.448;2022-09-17T02:23:07;3.13;;;1.60;;
14847;SDS011;7516;43.570;1.448;2022-09-17T02:25:41;2.63;;;1.52;;
14847;SDS011;7516;43.570;1.448;2022-09-17T02:28:16;3.92;;;1.55;;
14847;SDS011;7516;43.570;1.448;2022-09-17T02:30:49;3.47;;;1.73;;
14847;SDS011;7516;43.570;1.448;2022-09-17T02:33:18;3.50;;;1.65;;
14847;SDS011;7516;43.570;1.448;2022-09-17T02:35:47;3.25;;;1.70;;
14847;SDS011;7516;43.570;1.448;2022-09-17T02:38:20;3.90;;;1.58;;
14847;SDS011;7516;43.570;1.448;2022-09-17T02:40:49;3.92;;;1.50;;
14847;SDS011;7516;43.570;1.448;2022-09-17T02:43:25;2.22;;;1.52;;
14847;SDS011;7516;43.570;1.448;2022-09-17T02:46:05;2.35;;;1.45;;
14847;SDS011;7516;43.570;1.448;2022-09-17T02:49:05;4.63;;;1.50;;
14847;SDS011;7516;43.570;1.448;2022-09-17T02:51:47;2.30;;;1.70;;
14847;SDS011;7516;43.570;1.448;2022-09-17T02:54:24;1.70;;;1.27;;
14847;SDS011;7516;43.570;1.448;2022-09-17T02:56:57;2.20;;;1.35;;
14847;SDS011;7516;43.570;1.448;2022-09-17T02:59:33;3.63;;;1.63;;
14847;SDS011;7516;43.570;1.448;2022-09-17T03:02:07;2.33;;;1.40;;
14847;SDS011;7516;43.570;1.448;2022-09-17T03:04:40;3.33;;;1.60;;
14847;SDS011;7516;43.570;1.448;2022-09-17T03:07:11;3.25;;;1.38;;
14847;SDS011;7516;43.570;1.448;2022-09-17T03:09:40;3.15;;;1.50;;
14847;SDS011;7516;43.570;1.448;2022-09-17T03:12:08;2.80;;;1.75;;
14847;SDS011;7516;43.570;1.448;2022-09-17T03:14:37;2.67;;;1.80;;
14847;SDS011;7516;43.570;1.448;2022-09-17T03:17:04;3.10;;;1.60;;
14847;SDS011;7516;43.570;1.448;2022-09-17T03:19:32;2.33;;;1.50;;
14847;SDS011;7516;43.570;1.448;2022-09-17T03:22:01;1.98;;;1.30;;
14847;SDS011;7516;43.570;1.448;2022-09-17T03:24:28;4.38;;;1.70;;
14847;SDS011;7516;43.570;1.448;2022-09-17T03:26:56;3.45;;;1.73;;
14847;SDS011;7516;43.570;1.448;2022-09-17T03:29:23;3.30;;;1.75;;
14847;SDS011;7516;43.570;1.448;2022-09-17T03:31:51;5.30;;;1.70;;
14847;SDS011;7516;43.570;1.448;2022-09-17T03:34:18;3.60;;;1.48;;
14847;SDS011;7516;43.570;1.448;2022-09-17T03:36:46;4.22;;;2.40;;
14847;SDS011;7516;43.570;1.448;2022-09-17T03:39:14;2.67;;;1.73;;
14847;SDS011;7516;43.570;1.448;2022-09-17T03:41:42;3.00;;;1.67;;
14847;SDS011;7516;43.570;1.448;2022-09-17T03:44:09;2.45;;;1.58;;
14847;SDS011;7516;43.570;1.448;2022-09-17T03:46:37;3.58;;;1.88;;
14847;SDS011;7516;43.570;1.448;2022-09-17T03:49:04;2.83;;;1.77;;
14847;SDS011;7516;43.570;1.448;2022-09-17T03:51:33;6.75;;;1.70;;
14847;SDS011;7516;43.570;1.448;2022-09-17T03:54:00;3.53;;;1.67;;
14847;SDS011;7516;43.570;1.448;2022-09-17T03:56:29;1.63;;;1.45;;
14847;SDS011;7516;43.570;1.448;2022-09-17T03:58:57;4.30;;;1.75;;
14847;SDS011;7516;43.570;1.448;2022-09-17T04:01:25;2.65;;;1.30;;
14847;SDS011;7516;43.570;1.448;2022-09-17T04:03:53;4.82;;;1.88;;
14847;SDS011;7516;43.570;1.448;2022-09-17T04:06:21;2.63;;;1.40;;
14847;SDS011;7516;43.570;1.448;2022-09-17T04:08:48;3.67;;;1.88;;
14847;SDS011;7516;43.570;1.448;2022-09-17T04:11:16;2.45;;;1.60;;
14847;SDS011;7516;43.570;1.448;2022-09-17T04:13:45;3.83;;;1.58;;
14847;SDS011;7516;43.570;1.448;2022-09-17T04:16:12;3.65;;;1.55;;
14847;SDS011;7516;43.570;1.448;2022-09-17T04:18:40;3.88;;;1.50;;
14847;SDS011;7516;43.570;1.448;2022-09-17T04:21:07;2.33;;;1.58;;
14847;SDS011;7516;43.570;1.448;2022-09-17T04:23:35;3.88;;;1.52;;
14847;SDS011;7516;43.570;1.448;2022-09-17T04:26:02;2.75;;;1.30;;
14847;SDS011;7516;43.570;1.448;2022-09-17T04:28:30;2.42;;;1.40;;
14847;SDS011;7516;43.570;1.448;2022-09-17T04:30:59;2.42;;;1.40;;
14847;SDS011;7516;43.570;1.448;2022-09-17T04:33:26;2.97;;;1.73;;
14847;SDS011;7516;43.570;1.448;2022-09-17T04:35:54;2.95;;;1.40;;
14847;SDS011;7516;43.570;1.448;2022-09-17T04:38:21;2.63;;;2.10;;
14847;SDS011;7516;43.570;1.448;2022-09-17T04:40:49;2.45;;;1.33;;
14847;SDS011;7516;43.570;1.448;2022-09-17T04:43:16;3.03;;;1.40;;
14847;SDS011;7516;43.570;1.448;2022-09-17T04:45:45;3.63;;;1.70;;
14847;SDS011;7516;43.570;1.448;2022-09-17T04:48:15;4.07;;;1.63;;
14847;SDS011;7516;43.570;1.448;2022-09-17T04:50:42;5.75;;;1.58;;
14847;SDS011;7516;43.570;1.448;2022-09-17T04:53:10;2.75;;;1.30;;
14847;SDS011;7516;43.570;1.448;2022-09-17T04:55:37;3.95;;;1.30;;
14847;SDS011;7516;43.570;1.448;2022-09-17T04:58:05;2.30;;;1.48;;
14847;SDS011;7516;43.570;1.448;2022-09-17T05:00:32;2.30;;;1.20;;
14847;SDS011;7516;43.570;1.448;2022-09-17T05:03:00;2.70;;;1.77;;
14847;SDS011;7516;43.570;1.448;2022-09-17T05:05:29;2.90;;;1.55;;
14847;SDS011;7516;43.570;1.448;2022-09-17T05:07:57;3.85;;;1.50;;
14847;SDS011;7516;43.570;1.448;2022-09-17T05:10:24;3.90;;;1.48;;
14847;SDS011;7516;43.570;1.448;2022-09-17T05:12:53;3.63;;;1.30;;
14847;SDS011;7516;43.570;1.448;2022-09-17T05:15:22;3.15;;;1.45;;
14847;SDS011;7516;43.570;1.448;2022-09-17T05:17:50;3.63;;;1.70;;
14847;SDS011;7516;43.570;1.448;2022-09-17T05:20:18;2.50;;;1.33;;
14847;SDS011;7516;43.570;1.448;2022-09-17T05:22:48;5.68;;;1.80;;
14847;SDS011;7516;43.570;1.448;2022-09-17T05:25:18;4.15;;;1.70;;
14847;SDS011;7516;43.570;1.448;2022-09-17T05:27:48;3.80;;;1.40;;
14847;SDS011;7516;43.570;1.448;2022-09-17T05:30:16;3.28;;;1.50;;
14847;SDS011;7516;43.570;1.448;2022-09-17T05:32:44;4.25;;;1.70;;
14847;SDS011;7516;43.570;1.448;2022-09-17T05:35:12;2.13;;;1.52;;
14847;SDS011;7516;43.570;1.448;2022-09-17T05:37:40;2.92;;;1.30;;
14847;SDS011;7516;43.570;1.448;2022-09-17T05:40:09;4.05;;;1.40;;
14847;SDS011;7516;43.570;1.448;2022-09-17T05:42:37;3.47;;;1.35;;
14847;SDS011;7516;43.570;1.448;2022-09-17T05:45:05;2.78;;;1.50;;
14847;SDS011;7516;43.570;1.448;2022-09-17T05:47:33;2.75;;;1.40;;
14847;SDS011;7516;43.570;1.448;2022-09-17T05:50:00;2.53;;;1.30;;
14847;SDS011;7516;43.570;1.448;2022-09-17T05:52:28;4.90;;;1.50;;
14847;SDS011;7516;43.570;1.448;2022-09-17T05:54:55;1.92;;;1.25;;
14847;SDS011;7516;43.570;1.448;2022-09-17T05:57:25;2.30;;;1.42;;
14847;SDS011;7516;43.570;1.448;2022-09-17T05:59:55;2.85;;;1.30;;
14847;SDS011;7516;43.570;1.448;2022-09-17T06:02:22;4.90;;;1.70;;
14847;SDS011;7516;43.570;1.448;2022-09-17T06:04:50;2.95;;;1.50;;
14847;SDS011;7516;43.570;1.448;2022-09-17T06:07:17;2.92;;;1.48;;
14847;SDS011;7516;43.570;1.448;2022-09-17T06:09:45;2.95;;;1.20;;
14847;SDS011;7516;43.570;1.448;2022-09-17T06:12:12;2.05;;;1.25;;
14847;SDS011;7516;43.570;1.448;2022-09-17T06:14:41;3.45;;;1.50;;
14847;SDS011;7516;43.570;1.448;2022-09-17T06:17:08;3.20;;;1.90;;
14847;SDS011;7516;43.570;1.448;2022-09-17T06:19:36;2.05;;;1.10;;
14847;SDS011;7516;43.570;1.448;2022-09-17T06:22:03;4.28;;;1.50;;
14847;SDS011;7516;43.570;1.448;2022-09-17T06:24:31;3.38;;;1.55;;
14847;SDS011;7516;43.570;1.448;2022-09-17T06:26:59;1.20;;;1.10;;
14847;SDS011;7516;43.570;1.448;2022-09-17T06:29:26;3.63;;;1.50;;
14847;SDS011;7516;43.570;1.448;2022-09-17T06:31:55;2.40;;;1.50;;
14847;SDS011;7516;43.570;1.448;2022-09-17T06:34:22;3.90;;;1.60;;
14847;SDS011;7516;43.570;1.448;2022-09-17T06:36:50;6.00;;;1.98;;
14847;SDS011;7516;43.570;1.448;2022-09-17T06:39:17;3.33;;;1.42;;
14847;SDS011;7516;43.570;1.448;2022-09-17T06:41:45;4.38;;;1.58;;
14847;SDS011;7516;43.570;1.448;2022-09-17T06:44:12;4.57;;;1.60;;
14847;SDS011;7516;43.570;1.448;2022-09-17T06:46:40;4.28;;;1.25;;
14847;SDS011;7516;43.570;1.448;2022-09-17T06:49:09;3.00;;;1.38;;
14847;SDS011;7516;43.570;1.448;2022-09-17T06:51:37;3.00;;;1.60;;
14847;SDS011;7516;43.570;1.448;2022-09-17T06:54:05;2.75;;;1.50;;
14847;SDS011;7516;43.570;1.448;2022-09-17T06:56:33;4.75;;;1.50;;
14847;SDS011;7516;43.570;1.448;2022-09-17T06:59:00;3.30;;;1.50;;
14847;SDS011;7516;43.570;1.448;2022-09-17T07:01:28;6.05;;;1.50;;
14847;SDS011;7516;43.570;1.448;2022-09-17T07:03:56;5.80;;;1.58;;
14847;SDS011;7516;43.570;1.448;2022-09-17T07:06:25;4.18;;;1.75;;
14847;SDS011;7516;43.570;1.448;2022-09-17T07:08:53;2.47;;;1.23;;
14847;SDS011;7516;43.570;1.448;2022-09-17T07:11:20;4.30;;;1.55;;
14847;SDS011;7516;43.570;1.448;2022-09-17T07:13:48;2.42;;;1.50;;
14847;SDS011;7516;43.570;1.448;2022-09-17T07:16:15;3.42;;;1.40;;
14847;SDS011;7516;43.570;1.448;2022-09-17T07:18:43;3.17;;;1.45;;
14847;SDS011;7516;43.570;1.448;2022-09-17T07:21:11;3.85;;;1.75;;
14847;SDS011;7516;43.570;1.448;2022-09-17T07:23:40;3.95;;;1.80;;
14847;SDS011;7516;43.570;1.448;2022-09-17T07:26:10;5.07;;;1.80;;
14847;SDS011;7516;43.570;1.448;2022-09-17T07:28:40;3.17;;;1.50;;
14847;SDS011;7516;43.570;1.448;2022-09-17T07:31:09;2.20;;;1.40;;
14847;SDS011;7516;43.570;1.448;2022-09-17T07:33:37;3.72;;;1.67;;
14847;SDS011;7516;43.570;1.448;2022-09-17T07:36:06;2.33;;;1.40;;
14847;SDS011;7516;43.570;1.448;2022-09-17T07:38:36;2.65;;;1.40;;
14847;SDS011;7516;43.570;1.448;2022-09-17T07:41:06;3.47;;;1.60;;
14847;SDS011;7516;43.570;1.448;2022-09-17T07:43:37;4.88;;;1.60;;
14847;SDS011;7516;43.570;1.448;2022-09-17T07:46:05;3.45;;;1.80;;
14847;SDS011;7516;43.570;1.448;2022-09-17T07:48:33;3.53;;;1.70;;
14847;SDS011;7516;43.570;1.448;2022-09-17T07:51:00;3.92;;;1.75;;
14847;SDS011;7516;43.570;1.448;2022-09-17T07:53:28;5.00;;;1.70;;
14847;SDS011;7516;43.570;1.448;2022-09-17T07:55:56;3.17;;;1.40;;
14847;SDS011;7516;43.570;1.448;2022-09-17T07:58:28;3.22;;;1.50;;
14847;SDS011;7516;43.570;1.448;2022-09-17T08:01:00;5.97;;;1.98;;
14847;SDS011;7516;43.570;1.448;2022-09-17T08:03:28;3.10;;;1.50;;
14847;SDS011;7516;43.570;1.448;2022-09-17T08:06:02;3.13;;;1.52;;
14847;SDS011;7516;43.570;1.448;2022-09-17T08:08:31;2.75;;;1.70;;
14847;SDS011;7516;43.570;1.448;2022-09-17T08:11:00;3.20;;;1.83;;
14847;SDS011;7516;43.570;1.448;2022-09-17T08:13:29;3.53;;;1.50;;
14847;SDS011;7516;43.570;1.448;2022-09-17T08:15:57;3.30;;;1.85;;
14847;SDS011;7516;43.570;1.448;2022-09-17T08:18:26;5.57;;;1.75;;
14847;SDS011;7516;43.570;1.448;2022-09-17T08:20:55;3.47;;;1.33;;
14847;SDS011;7516;43.570;1.448;2022-09-17T08:23:23;4.22;;;1.63;;
14847;SDS011;7516;43.570;1.448;2022-09-17T08:25:52;3.78;;;1.73;;
14847;SDS011;7516;43.570;1.448;2022-09-17T08:28:20;3.60;;;1.50;;
14847;SDS011;7516;43.570;1.448;2022-09-17T08:30:49;2.90;;;1.77;;
14847;SDS011;7516;43.570;1.448;2022-09-17T08:33:17;4.60;;;2.03;;
14847;SDS011;7516;43.570;1.448;2022-09-17T08:35:49;3.65;;;1.55;;
14847;SDS011;7516;43.570;1.448;2022-09-17T08:38:17;5.57;;;1.85;;
14847;SDS011;7516;43.570;1.448;2022-09-17T08:40:53;4.82;;;1.38;;
14847;SDS011;7516;43.570;1.448;2022-09-17T08:43:29;1.60;;;1.38;;
14847;SDS011;7516;43.570;1.448;2022-09-17T08:46:00;3.30;;;1.63;;
14847;SDS011;7516;43.570;1.448;2022-09-17T08:48:30;3.30;;;1.60;;
14847;SDS011;7516;43.570;1.448;2022-09-17T08:51:05;2.88;;;1.80;;
14847;SDS011;7516;43.570;1.448;2022-09-17T08:53:45;2.22;;;1.45;;
14847;SDS011;7516;43.570;1.448;2022-09-17T08:56:22;4.25;;;1.70;;
14847;SDS011;7516;43.570;1.448;2022-09-17T08:59:06;2.60;;;1.67;;
14847;SDS011;7516;43.570;1.448;2022-09-17T09:01:47;3.20;;;1.65;;
14847;SDS011;7516;43.570;1.448;2022-09-17T09:04:35;2.72;;;1.50;;
14847;SDS011;7516;43.570;1.448;2022-09-17T09:07:20;3.95;;;1.50;;
14847;SDS011;7516;43.570;1.448;2022-09-17T09:09:53;5.72;;;1.45;;
14847;SDS011;7516;43.570;1.448;2022-09-17T09:12:30;3.42;;;1.40;;
14847;SDS011;7516;43.570;1.448;2022-09-17T09:15:00;3.28;;;1.73;;
14847;SDS011;7516;43.570;1.448;2022-09-17T09:17:33;3.50;;;2.10;;
14847;SDS011;7516;43.570;1.448;2022-09-17T09:20:10;3.17;;;1.40;;
14847;SDS011;7516;43.570;1.448;2022-09-17T09:22:45;2.33;;;1.30;;
14847;SDS011;7516;43.570;1.448;2022-09-17T09:25:19;3.72;;;1.20;;
14847;SDS011;7516;43.570;1.448;2022-09-17T09:30:42;2.05;;;1.33;;
14847;SDS011;7516;43.570;1.448;2022-09-17T09:33:23;2.67;;;1.30;;
14847;SDS011;7516;43.570;1.448;2022-09-17T09:35:55;2.42;;;1.10;;
14847;SDS011;7516;43.570;1.448;2022-09-17T09:38:27;1.25;;;0.80;;
14847;SDS011;7516;43.570;1.448;2022-09-17T09:40:59;1.77;;;1.13;;
14847;SDS011;7516;43.570;1.448;2022-09-17T09:43:38;3.47;;;1.08;;
14847;SDS011;7516;43.570;1.448;2022-09-17T09:46:15;3.63;;;1.30;;
14847;SDS011;7516;43.570;1.448;2022-09-17T09:48:58;2.20;;;1.20;;
14847;SDS011;7516;43.570;1.448;2022-09-17T09:51:36;1.52;;;1.05;;
14847;SDS011;7516;43.570;1.448;2022-09-17T09:54:24;2.92;;;1.25;;
14847;SDS011;7516;43.570;1.448;2022-09-17T09:57:01;3.40;;;1.00;;
14847;SDS011;7516;43.570;1.448;2022-09-17T09:59:32;6.15;;;1.20;;
14847;SDS011;7516;43.570;1.448;2022-09-17T10:02:01;1.98;;;1.20;;
14847;SDS011;7516;43.570;1.448;2022-09-17T10:04:30;1.55;;;0.95;;
14847;SDS011;7516;43.570;1.448;2022-09-17T10:06:59;2.22;;;1.20;;
14847;SDS011;7516;43.570;1.448;2022-09-17T10:09:28;3.92;;;1.00;;
14847;SDS011;7516;43.570;1.448;2022-09-17T10:11:59;3.25;;;1.30;;
14847;SDS011;7516;43.570;1.448;2022-09-17T10:14:28;2.97;;;1.20;;
14847;SDS011;7516;43.570;1.448;2022-09-17T10:17:10;3.03;;;1.20;;
14847;SDS011;7516;43.570;1.448;2022-09-17T10:20:06;3.55;;;1.15;;
14847;SDS011;7516;43.570;1.448;2022-09-17T10:22:41;5.22;;;1.15;;
14847;SDS011;7516;43.570;1.448;2022-09-17T10:25:19;2.42;;;0.95;;
14847;SDS011;7516;43.570;1.448;2022-09-17T10:27:54;3.17;;;1.27;;
14847;SDS011;7516;43.570;1.448;2022-09-17T10:30:22;5.13;;;1.45;;
14847;SDS011;7516;43.570;1.448;2022-09-17T10:33:09;2.92;;;1.20;;
14847;SDS011;7516;43.570;1.448;2022-09-17T10:35:55;3.05;;;1.15;;
14847;SDS011;7516;43.570;1.448;2022-09-17T10:38:26;4.55;;;1.20;;
14847;SDS011;7516;43.570;1.448;2022-09-17T10:41:06;2.50;;;1.17;;
14847;SDS011;7516;43.570;1.448;2022-09-17T10:43:37;3.05;;;1.15;;
14847;SDS011;7516;43.570;1.448;2022-09-17T10:46:06;2.42;;;0.98;;
14847;SDS011;7516;43.570;1.448;2022-09-17T10:48:37;2.58;;;1.25;;
14847;SDS011;7516;43.570;1.448;2022-09-17T10:51:10;3.13;;;1.05;;
14847;SDS011;7516;43.570;1.448;2022-09-17T10:53:57;4.25;;;1.20;;
14847;SDS011;7516;43.570;1.448;2022-09-17T10:56:41;3.63;;;1.00;;
14847;SDS011;7516;43.570;1.448;2022-09-17T10:59:20;3.63;;;1.20;;
14847;SDS011;7516;43.570;1.448;2022-09-17T11:02:23;1.13;;;1.00;;
14847;SDS011;7516;43.570;1.448;2022-09-17T11:05:06;2.35;;;1.00;;
14847;SDS011;7516;43.570;1.448;2022-09-17T11:08:00;4.72;;;1.40;;
14847;SDS011;7516;43.570;1.448;2022-09-17T11:10:40;3.17;;;1.10;;
14847;SDS011;7516;43.570;1.448;2022-09-17T11:13:18;2.00;;;1.10;;
14847;SDS011;7516;43.570;1.448;2022-09-17T11:15:58;1.70;;;1.10;;
14847;SDS011;7516;43.570;1.448;2022-09-17T11:18:47;2.00;;;1.00;;
14847;SDS011;7516;43.570;1.448;2022-09-17T11:24:25;2.22;;;1.00;;
14847;SDS011;7516;43.570;1.448;2022-09-17T11:27:29;2.00;;;1.00;;
14847;SDS011;7516;43.570;1.448;2022-09-17T11:30:16;3.53;;;1.10;;
14847;SDS011;7516;43.570;1.448;2022-09-17T11:35:46;4.85;;;1.35;;
14847;SDS011;7516;43.570;1.448;2022-09-17T11:38:17;3.45;;;1.30;;
14847;SDS011;7516;43.570;1.448;2022-09-17T11:40:55;3.10;;;1.20;;
14847;SDS011;7516;43.570;1.448;2022-09-17T11:43:27;2.00;;;0.90;;
14847;SDS011;7516;43.570;1.448;2022-09-17T11:45:59;2.08;;;0.90;;
14847;SDS011;7516;43.570;1.448;2022-09-17T11:48:34;3.30;;;1.10;;
14847;SDS011;7516;43.570;1.448;2022-09-17T11:51:21;2.22;;;1.10;;
14847;SDS011;7516;43.570;1.448;2022-09-17T11:53:55;2.47;;;1.10;;
14847;SDS011;7516;43.570;1.448;2022-09-17T11:56:32;3.70;;;1.10;;
14847;SDS011;7516;43.570;1.448;2022-09-17T11:59:04;2.17;;;1.00;;
14847;SDS011;7516;43.570;1.448;2022-09-17T12:01:40;1.33;;;0.82;;
14847;SDS011;7516;43.570;1.448;2022-09-17T12:04:25;2.10;;;1.38;;
14847;SDS011;7516;43.570;1.448;2022-09-17T12:07:03;2.67;;;1.20;;
14847;SDS011;7516;43.570;1.448;2022-09-17T12:09:45;1.98;;;1.08;;
14847;SDS011;7516;43.570;1.448;2022-09-17T12:12:18;2.13;;;0.90;;
14847;SDS011;7516;43.570;1.448;2022-09-17T12:14:50;2.97;;;1.02;;
14847;SDS011;7516;43.570;1.448;2022-09-17T12:17:23;1.65;;;0.98;;
14847;SDS011;7516;43.570;1.448;2022-09-17T12:19:58;2.08;;;0.90;;
14847;SDS011;7516;43.570;1.448;2022-09-17T12:22:32;1.35;;;0.82;;
14847;SDS011;7516;43.570;1.448;2022-09-17T12:25:09;1.95;;;1.08;;
14847;SDS011;7516;43.570;1.448;2022-09-17T12:27:40;1.52;;;0.70;;
14847;SDS011;7516;43.570;1.448;2022-09-17T12:30:18;1.10;;;0.80;;
14847;SDS011;7516;43.570;1.448;2022-09-17T12:32:57;2.40;;;1.23;;
14847;SDS011;7516;43.570;1.448;2022-09-17T12:38:40;2.17;;;0.80;;
14847;SDS011;7516;43.570;1.448;2022-09-17T12:41:30;2.20;;;0.98;;
14847;SDS011;7516;43.570;1.448;2022-09-17T12:47:20;1.30;;;0.70;;
14847;SDS011;7516;43.570;1.448;2022-09-17T12:50:10;1.58;;;1.20;;
14847;SDS011;7516;43.570;1.448;2022-09-17T12:52:48;2.65;;;1.30;;
14847;SDS011;7516;43.570;1.448;2022-09-17T12:55:34;5.50;;;1.30;;
14847;SDS011;7516;43.570;1.448;2022-09-17T12:58:12;3.42;;;1.50;;
14847;SDS011;7516;43.570;1.448;2022-09-17T13:00:54;1.75;;;0.70;;
14847;SDS011;7516;43.570;1.448;2022-09-17T13:03:29;5.68;;;0.80;;
14847;SDS011;7516;43.570;1.448;2022-09-17T13:06:05;2.47;;;0.70;;
14847;SDS011;7516;43.570;1.448;2022-09-17T13:09:01;1.08;;;0.90;;
14847;SDS011;7516;43.570;1.448;2022-09-17T13:11:44;2.13;;;0.98;;
14847;SDS011;7516;43.570;1.448;2022-09-17T13:14:46;4.15;;;1.92;;
14847;SDS011;7516;43.570;1.448;2022-09-17T13:17:37;0.98;;;0.70;;
14847;SDS011;7516;43.570;1.448;2022-09-17T13:20:12;2.03;;;0.60;;
14847;SDS011;7516;43.570;1.448;2022-09-17T13:22:43;2.28;;;0.90;;
14847;SDS011;7516;43.570;1.448;2022-09-17T13:25:13;1.30;;;0.70;;
14847;SDS011;7516;43.570;1.448;2022-09-17T13:27:43;1.00;;;0.70;;
14847;SDS011;7516;43.570;1.448;2022-09-17T13:30:11;3.00;;;0.95;;
14847;SDS011;7516;43.570;1.448;2022-09-17T13:32:46;1.60;;;0.80;;
14847;SDS011;7516;43.570;1.448;2022-09-17T13:38:17;2.60;;;0.85;;
14847;SDS011;7516;43.570;1.448;2022-09-17T13:40:47;1.23;;;0.70;;
14847;SDS011;7516;43.570;1.448;2022-09-17T13:43:16;1.80;;;0.70;;
14847;SDS011;7516;43.570;1.448;2022-09-17T13:46:04;0.70;;;0.63;;
14847;SDS011;7516;43.570;1.448;2022-09-17T13:48:46;1.40;;;0.80;;
14847;SDS011;7516;43.570;1.448;2022-09-17T13:54:10;1.30;;;0.80;;
14847;SDS011;7516;43.570;1.448;2022-09-17T13:56:40;2.03;;;0.65;;
14847;SDS011;7516;43.570;1.448;2022-09-17T13:59:11;0.93;;;0.80;;
14847;SDS011;7516;43.570;1.448;2022-09-17T14:01:55;1.75;;;0.63;;
14847;SDS011;7516;43.570;1.448;2022-09-17T14:04:53;1.75;;;0.68;;
14847;SDS011;7516;43.570;1.448;2022-09-17T14:07:34;2.35;;;0.90;;
14847;SDS011;7516;43.570;1.448;2022-09-17T14:10:28;1.88;;;0.90;;
14847;SDS011;7516;43.570;1.448;2022-09-17T14:13:22;0.82;;;0.55;;
14847;SDS011;7516;43.570;1.448;2022-09-17T14:19:00;1.17;;;0.60;;
14847;SDS011;7516;43.570;1.448;2022-09-17T14:21:32;2.20;;;0.80;;
14847;SDS011;7516;43.570;1.448;2022-09-17T14:24:01;1.58;;;0.63;;
14847;SDS011;7516;43.570;1.448;2022-09-17T14:26:51;1.30;;;0.60;;
14847;SDS011;7516;43.570;1.448;2022-09-17T14:32:35;1.25;;;0.70;;
14847;SDS011;7516;43.570;1.448;2022-09-17T14:35:13;3.85;;;0.60;;
14847;SDS011;7516;43.570;1.448;2022-09-17T14:37:47;1.73;;;0.68;;
14847;SDS011;7516;43.570;1.448;2022-09-17T14:40:18;0.77;;;0.68;;
14847;SDS011;7516;43.570;1.448;2022-09-17T14:42:48;1.30;;;0.80;;
14847;SDS011;7516;43.570;1.448;2022-09-17T14:45:21;0.95;;;0.50;;
14847;SDS011;7516;43.570;1.448;2022-09-17T14:51:11;3.72;;;0.75;;
14847;SDS011;7516;43.570;1.448;2022-09-17T14:54:06;1.05;;;0.68;;
14847;SDS011;7516;43.570;1.448;2022-09-17T14:56:45;1.27;;;0.57;;
14847;SDS011;7516;43.570;1.448;2022-09-17T14:59:32;1.10;;;0.65;;
14847;SDS011;7516;43.570;1.448;2022-09-17T15:02:23;1.08;;;0.80;;
14847;SDS011;7516;43.570;1.448;2022-09-17T15:04:55;1.45;;;0.80;;
14847;SDS011;7516;43.570;1.448;2022-09-17T15:07:23;1.23;;;0.90;;
14847;SDS011;7516;43.570;1.448;2022-09-17T15:09:53;1.33;;;0.60;;
14847;SDS011;7516;43.570;1.448;2022-09-17T15:12:31;1.85;;;0.80;;
14847;SDS011;7516;43.570;1.448;2022-09-17T15:14:58;2.30;;;0.68;;
14847;SDS011;7516;43.570;1.448;2022-09-17T15:17:26;1.23;;;0.70;;
14847;SDS011;7516;43.570;1.448;2022-09-17T15:19:55;0.95;;;0.75;;
14847;SDS011;7516;43.570;1.448;2022-09-17T15:22:24;2.10;;;0.80;;
14847;SDS011;7516;43.570;1.448;2022-09-17T15:24:57;2.25;;;0.70;;
14847;SDS011;7516;43.570;1.448;2022-09-17T15:27:28;0.75;;;0.60;;
14847;SDS011;7516;43.570;1.448;2022-09-17T15:30:00;1.05;;;0.68;;
14847;SDS011;7516;43.570;1.448;2022-09-17T15:32:30;1.10;;;0.77;;
14847;SDS011;7516;43.570;1.448;2022-09-17T15:35:08;1.20;;;0.70;;
14847;SDS011;7516;43.570;1.448;2022-09-17T15:37:44;0.80;;;0.63;;
14847;SDS011;7516;43.570;1.448;2022-09-17T15:40:14;0.88;;;0.73;;
14847;SDS011;7516;43.570;1.448;2022-09-17T15:42:49;1.90;;;0.80;;
14847;SDS011;7516;43.570;1.448;2022-09-17T15:45:21;1.98;;;0.65;;
14847;SDS011;7516;43.570;1.448;2022-09-17T15:47:53;1.63;;;0.80;;
14847;SDS011;7516;43.570;1.448;2022-09-17T15:50:22;2.17;;;0.77;;
14847;SDS011;7516;43.570;1.448;2022-09-17T15:52:57;0.95;;;0.50;;
14847;SDS011;7516;43.570;1.448;2022-09-17T15:55:39;0.80;;;0.60;;
14847;SDS011;7516;43.570;1.448;2022-09-17T15:58:19;0.85;;;0.60;;
14847;SDS011;7516;43.570;1.448;2022-09-17T16:00:57;0.80;;;0.70;;
14847;SDS011;7516;43.570;1.448;2022-09-17T16:06:58;1.25;;;0.60;;
14847;SDS011;7516;43.570;1.448;2022-09-17T16:09:38;0.70;;;0.65;;
14847;SDS011;7516;43.570;1.448;2022-09-17T16:12:14;0.50;;;0.50;;
14847;SDS011;7516;43.570;1.448;2022-09-17T16:14:44;0.60;;;0.60;;